sensor_id;sensor_type;location;lat;lon;timestamp;pressure;altitude;pressure_sealevel;temperature;humidity
67345;BME280;54230;52.402;6.276;2023-03-12T00:00:00;101230.0;;;2.7;79.4
67345;BME280;54230;52.402;6.276;2023-03-12T00:05:00;101230.0;;;2.6;78.9
67345;BME280;54230;52.402;6.276;2023-03-12T00:10:00;101230.0;;;3.0;80.8
67345;BME280;54230;52.402;6.276;2023-03-12T00:15:00;101220.0;;;2.9;79.5
67345;BME280;54230;52.402;6.276;2023-03-12T00:20:00;101210.0;;;2.7;78.1
67345;BME280;54230;52.402;6.276;2023-03-12T00:25:01;101210.0;;;2.5;77.6
67345;BME280;54230;52.402;6.276;2023-03-12T00:30:00;101200.0;;;2.5;77.2
67345;BME280;54230;52.402;6.276;2023-03-12T00:35:01;101200.0;;;2.4;77.0
67345;BME280;54230;52.402;6.276;2023-03-12T00:40:01;101200.0;;;2.3;76.9
67345;BME280;54230;52.402;6.276;2023-03-12T00:45:00;101200.0;;;2.3;77.1
67345;BME280;54230;52.402;6.276;2023-03-12T00:50:00;101190.0;;;2.3;76.8
67345;BME280;54230;52.402;6.276;2023-03-12T00:55:00;101180.0;;;2.4;76.5
67345;BME280;54230;52.402;6.276;2023-03-12T01:00:00;101170.0;;;2.5;75.8
67345;BME280;54230;52.402;6.276;2023-03-12T01:05:00;101170.0;;;2.5;75.5
67345;BME280;54230;52.402;6.276;2023-03-12T01:10:00;101170.0;;;2.6;75.2
67345;BME280;54230;52.402;6.276;2023-03-12T01:15:00;101170.0;;;2.7;74.4
67345;BME280;54230;52.402;6.276;2023-03-12T01:20:00;101170.0;;;2.8;74.2
67345;BME280;54230;52.402;6.276;2023-03-12T01:25:00;101170.0;;;2.8;74.0
67345;BME280;54230;52.402;6.276;2023-03-12T01:30:00;101160.0;;;2.9;73.6
67345;BME280;54230;52.402;6.276;2023-03-12T01:35:00;101160.0;;;2.9;73.4
67345;BME280;54230;52.402;6.276;2023-03-12T01:40:01;101150.0;;;3.0;73.2
67345;BME280;54230;52.402;6.276;2023-03-12T01:45:02;101150.0;;;3.0;72.3
67345;BME280;54230;52.402;6.276;2023-03-12T01:50:00;101140.0;;;3.0;72.1
67345;BME280;54230;52.402;6.276;2023-03-12T01:55:02;101140.0;;;3.0;71.9
67345;BME280;54230;52.402;6.276;2023-03-12T02:00:03;101130.0;;;3.0;71.4
67345;BME280;54230;52.402;6.276;2023-03-12T02:05:04;101130.0;;;3.1;70.9
67345;BME280;54230;52.402;6.276;2023-03-12T02:10:01;101130.0;;;3.0;71.4
67345;BME280;54230;52.402;6.276;2023-03-12T02:15:00;101120.0;;;3.1;71.1
67345;BME280;54230;52.402;6.276;2023-03-12T02:20:06;101110.0;;;3.1;70.7
67345;BME280;54230;52.402;6.276;2023-03-12T02:25:12;101110.0;;;3.0;70.8
67345;BME280;54230;52.402;6.276;2023-03-12T02:30:01;101100.0;;;3.0;70.8
67345;BME280;54230;52.402;6.276;2023-03-12T02:35:01;101090.0;;;3.1;70.8
67345;BME280;54230;52.402;6.276;2023-03-12T02:40:04;101090.0;;;3.1;70.5
67345;BME280;54230;52.402;6.276;2023-03-12T02:45:02;101090.0;;;3.2;70.7
67345;BME280;54230;52.402;6.276;2023-03-12T02:50:00;101080.0;;;3.2;70.3
67345;BME280;54230;52.402;6.276;2023-03-12T02:55:00;101070.0;;;3.1;70.5
67345;BME280;54230;52.402;6.276;2023-03-12T03:00:00;101050.0;;;3.2;70.6
67345;BME280;54230;52.402;6.276;2023-03-12T03:05:00;101040.0;;;3.1;70.4
67345;BME280;54230;52.402;6.276;2023-03-12T03:10:00;101040.0;;;3.1;70.5
67345;BME280;54230;52.402;6.276;2023-03-12T03:15:01;101040.0;;;3.2;71.2
67345;BME280;54230;52.402;6.276;2023-03-12T03:20:00;101030.0;;;3.2;70.4
67345;BME280;54230;52.402;6.276;2023-03-12T03:25:00;101020.0;;;3.2;70.1
67345;BME280;54230;52.402;6.276;2023-03-12T03:30:00;101020.0;;;3.2;70.4
67345;BME280;54230;52.402;6.276;2023-03-12T03:35:00;101020.0;;;3.2;69.9
67345;BME280;54230;52.402;6.276;2023-03-12T03:40:00;101020.0;;;3.1;70.0
67345;BME280;54230;52.402;6.276;2023-03-12T03:45:00;101020.0;;;3.2;69.9
67345;BME280;54230;52.402;6.276;2023-03-12T03:50:00;101020.0;;;3.2;70.4
67345;BME280;54230;52.402;6.276;2023-03-12T03:55:00;101010.0;;;3.2;70.7
67345;BME280;54230;52.402;6.276;2023-03-12T04:00:00;100990.0;;;3.1;69.8
67345;BME280;54230;52.402;6.276;2023-03-12T04:05:00;100970.0;;;3.1;70.3
67345;BME280;54230;52.402;6.276;2023-03-12T04:10:00;100970.0;;;3.1;70.2
67345;BME280;54230;52.402;6.276;2023-03-12T04:15:00;100960.0;;;3.2;70.4
67345;BME280;54230;52.402;6.276;2023-03-12T04:20:00;100960.0;;;3.2;70.1
67345;BME280;54230;52.402;6.276;2023-03-12T04:25:00;100950.0;;;3.3;69.6
67345;BME280;54230;52.402;6.276;2023-03-12T04:30:00;100950.0;;;3.4;69.6
67345;BME280;54230;52.402;6.276;2023-03-12T04:35:00;100940.0;;;3.4;69.6
67345;BME280;54230;52.402;6.276;2023-03-12T04:40:01;100930.0;;;3.5;69.6
67345;BME280;54230;52.402;6.276;2023-03-12T04:45:00;100920.0;;;3.5;69.4
67345;BME280;54230;52.402;6.276;2023-03-12T04:50:00;100910.0;;;3.5;69.6
67345;BME280;54230;52.402;6.276;2023-03-12T04:55:00;100910.0;;;3.5;69.8
67345;BME280;54230;52.402;6.276;2023-03-12T05:00:00;100900.0;;;3.5;70.5
67345;BME280;54230;52.402;6.276;2023-03-12T05:05:00;100900.0;;;3.5;70.6
67345;BME280;54230;52.402;6.276;2023-03-12T05:10:00;100900.0;;;3.5;70.7
67345;BME280;54230;52.402;6.276;2023-03-12T05:15:00;100890.0;;;3.5;70.5
67345;BME280;54230;52.402;6.276;2023-03-12T05:20:00;100900.0;;;3.5;70.9
67345;BME280;54230;52.402;6.276;2023-03-12T05:25:00;100900.0;;;3.5;71.1
67345;BME280;54230;52.402;6.276;2023-03-12T05:30:00;100890.0;;;3.6;71.6
67345;BME280;54230;52.402;6.276;2023-03-12T05:35:00;100880.0;;;3.6;71.3
67345;BME280;54230;52.402;6.276;2023-03-12T05:40:00;100870.0;;;3.6;71.5
67345;BME280;54230;52.402;6.276;2023-03-12T05:45:00;100890.0;;;3.6;71.3
67345;BME280;54230;52.402;6.276;2023-03-12T05:50:00;100870.0;;;3.6;72.0
67345;BME280;54230;52.402;6.276;2023-03-12T05:55:00;100860.0;;;3.7;71.8
67345;BME280;54230;52.402;6.276;2023-03-12T06:00:00;100870.0;;;3.6;71.8
67345;BME280;54230;52.402;6.276;2023-03-12T06:05:00;100860.0;;;3.6;72.4
67345;BME280;54230;52.402;6.276;2023-03-12T06:10:00;100860.0;;;3.6;72.2
67345;BME280;54230;52.402;6.276;2023-03-12T06:15:00;100860.0;;;3.7;72.6
67345;BME280;54230;52.402;6.276;2023-03-12T06:20:00;100850.0;;;3.8;72.8
67345;BME280;54230;52.402;6.276;2023-03-12T06:25:00;100850.0;;;3.7;73.2
67345;BME280;54230;52.402;6.276;2023-03-12T06:30:00;100860.0;;;3.7;73.9
67345;BME280;54230;52.402;6.276;2023-03-12T06:35:00;100850.0;;;3.8;74.8
67345;BME280;54230;52.402;6.276;2023-03-12T06:40:00;100840.0;;;3.9;75.2
67345;BME280;54230;52.402;6.276;2023-03-12T06:45:00;100830.0;;;4.0;75.5
67345;BME280;54230;52.402;6.276;2023-03-12T06:50:00;100820.0;;;4.0;76.0
67345;BME280;54230;52.402;6.276;2023-03-12T06:55:00;100810.0;;;4.0;76.7
67345;BME280;54230;52.402;6.276;2023-03-12T07:00:00;100810.0;;;4.1;76.9
67345;BME280;54230;52.402;6.276;2023-03-12T07:05:00;100810.0;;;4.1;77.2
67345;BME280;54230;52.402;6.276;2023-03-12T07:10:00;100810.0;;;4.2;77.7
67345;BME280;54230;52.402;6.276;2023-03-12T07:15:00;100820.0;;;4.1;78.2
67345;BME280;54230;52.402;6.276;2023-03-12T07:20:00;100810.0;;;4.1;79.1
67345;BME280;54230;52.402;6.276;2023-03-12T07:25:00;100800.0;;;4.2;79.5
67345;BME280;54230;52.402;6.276;2023-03-12T07:30:00;100790.0;;;4.2;79.4
67345;BME280;54230;52.402;6.276;2023-03-12T07:35:00;100780.0;;;4.2;80.1
67345;BME280;54230;52.402;6.276;2023-03-12T07:40:00;100780.0;;;4.2;80.2
67345;BME280;54230;52.402;6.276;2023-03-12T07:45:00;100760.0;;;4.2;81.0
67345;BME280;54230;52.402;6.276;2023-03-12T07:50:00;100750.0;;;4.4;81.3
67345;BME280;54230;52.402;6.276;2023-03-12T07:55:00;100750.0;;;4.6;81.0
67345;BME280;54230;52.402;6.276;2023-03-12T08:00:00;100750.0;;;4.6;80.6
67345;BME280;54230;52.402;6.276;2023-03-12T08:05:00;100750.0;;;4.5;80.5
67345;BME280;54230;52.402;6.276;2023-03-12T08:10:02;100750.0;;;4.6;80.8
67345;BME280;54230;52.402;6.276;2023-03-12T08:15:00;100760.0;;;5.1;80.7
67345;BME280;54230;52.402;6.276;2023-03-12T08:20:00;100760.0;;;5.4;80.4
67345;BME280;54230;52.402;6.276;2023-03-12T08:25:00;100760.0;;;5.4;79.2
67345;BME280;54230;52.402;6.276;2023-03-12T08:30:00;100780.0;;;5.2;79.8
67345;BME280;54230;52.402;6.276;2023-03-12T08:35:00;100780.0;;;4.7;80.8
67345;BME280;54230;52.402;6.276;2023-03-12T08:40:00;100780.0;;;4.4;82.6
67345;BME280;54230;52.402;6.276;2023-03-12T08:45:00;100760.0;;;4.2;83.8
67345;BME280;54230;52.402;6.276;2023-03-12T08:50:00;100750.0;;;4.2;85.1
67345;BME280;54230;52.402;6.276;2023-03-12T08:55:00;100740.0;;;4.5;86.3
67345;BME280;54230;52.402;6.276;2023-03-12T09:00:00;100750.0;;;4.4;86.6
67345;BME280;54230;52.402;6.276;2023-03-12T09:05:00;100740.0;;;4.5;86.8
67345;BME280;54230;52.402;6.276;2023-03-12T09:10:00;100740.0;;;4.6;87.3
67345;BME280;54230;52.402;6.276;2023-03-12T09:15:00;100730.0;;;4.7;87.6
67345;BME280;54230;52.402;6.276;2023-03-12T09:20:00;100720.0;;;4.9;88.6
67345;BME280;54230;52.402;6.276;2023-03-12T09:25:00;100710.0;;;5.2;89.1
67345;BME280;54230;52.402;6.276;2023-03-12T09:30:00;100710.0;;;5.4;89.8
67345;BME280;54230;52.402;6.276;2023-03-12T09:35:00;100720.0;;;5.1;89.8
67345;BME280;54230;52.402;6.276;2023-03-12T09:40:00;100730.0;;;5.2;90.1
67345;BME280;54230;52.402;6.276;2023-03-12T09:45:02;100740.0;;;5.3;90.3
67345;BME280;54230;52.402;6.276;2023-03-12T09:50:02;100740.0;;;5.0;90.9
67345;BME280;54230;52.402;6.276;2023-03-12T09:55:03;100720.0;;;5.3;91.5
67345;BME280;54230;52.402;6.276;2023-03-12T10:00:00;100720.0;;;5.7;91.7
67345;BME280;54230;52.402;6.276;2023-03-12T10:05:05;100710.0;;;5.4;90.9
67345;BME280;54230;52.402;6.276;2023-03-12T10:10:05;100710.0;;;6.0;91.2
67345;BME280;54230;52.402;6.276;2023-03-12T10:15:11;100710.0;;;5.9;90.0
67345;BME280;54230;52.402;6.276;2023-03-12T10:20:18;100710.0;;;5.9;90.0
67345;BME280;54230;52.402;6.276;2023-03-12T10:25:07;100720.0;;;6.0;90.2
67345;BME280;54230;52.402;6.276;2023-03-12T10:30:01;100710.0;;;6.0;90.2
67345;BME280;54230;52.402;6.276;2023-03-12T10:35:06;100710.0;;;6.2;89.9
67345;BME280;54230;52.402;6.276;2023-03-12T10:40:00;100700.0;;;6.0;89.8
67345;BME280;54230;52.402;6.276;2023-03-12T10:45:15;100700.0;;;6.2;90.7
67345;BME280;54230;52.402;6.276;2023-03-12T10:50:12;100690.0;;;6.4;90.9
67345;BME280;54230;52.402;6.276;2023-03-12T10:55:09;100690.0;;;6.5;91.2
67345;BME280;54230;52.402;6.276;2023-03-12T11:00:05;100690.0;;;6.6;91.4
67345;BME280;54230;52.402;6.276;2023-03-12T11:05:01;100690.0;;;6.8;91.3
67345;BME280;54230;52.402;6.276;2023-03-12T11:10:11;100690.0;;;6.9;91.1
67345;BME280;54230;52.402;6.276;2023-03-12T11:15:17;100680.0;;;7.1;91.1
67345;BME280;54230;52.402;6.276;2023-03-12T11:20:17;100690.0;;;7.3;91.2
67345;BME280;54230;52.402;6.276;2023-03-12T11:25:03;100690.0;;;7.2;91.4
67345;BME280;54230;52.402;6.276;2023-03-12T11:30:02;100690.0;;;7.3;92.0
67345;BME280;54230;52.402;6.276;2023-03-12T11:35:00;100690.0;;;7.3;92.3
67345;BME280;54230;52.402;6.276;2023-03-12T11:40:09;100680.0;;;7.5;92.9
67345;BME280;54230;52.402;6.276;2023-03-12T11:45:05;100680.0;;;7.8;93.2
67345;BME280;54230;52.402;6.276;2023-03-12T11:50:07;100680.0;;;7.9;93.6
67345;BME280;54230;52.402;6.276;2023-03-12T11:55:10;100690.0;;;8.0;94.0
67345;BME280;54230;52.402;6.276;2023-03-12T12:00:09;100690.0;;;8.1;94.2
67345;BME280;54230;52.402;6.276;2023-03-12T12:05:16;100680.0;;;8.2;94.5
67345;BME280;54230;52.402;6.276;2023-03-12T12:10:03;100680.0;;;8.5;94.8
67345;BME280;54230;52.402;6.276;2023-03-12T12:15:11;100670.0;;;8.9;95.0
67345;BME280;54230;52.402;6.276;2023-03-12T12:20:10;100660.0;;;9.3;94.7
67345;BME280;54230;52.402;6.276;2023-03-12T12:25:15;100650.0;;;9.2;94.5
67345;BME280;54230;52.402;6.276;2023-03-12T12:30:07;100650.0;;;9.1;94.8
67345;BME280;54230;52.402;6.276;2023-03-12T12:35:06;100650.0;;;9.1;95.1
67345;BME280;54230;52.402;6.276;2023-03-12T12:40:04;100640.0;;;9.1;95.3
67345;BME280;54230;52.402;6.276;2023-03-12T12:45:02;100640.0;;;9.2;95.5
67345;BME280;54230;52.402;6.276;2023-03-12T12:50:02;100630.0;;;9.3;95.8
67345;BME280;54230;52.402;6.276;2023-03-12T12:55:05;100640.0;;;9.4;96.0
67345;BME280;54230;52.402;6.276;2023-03-12T13:00:13;100630.0;;;9.5;96.2
67345;BME280;54230;52.402;6.276;2023-03-12T13:05:00;100610.0;;;9.5;96.3
67345;BME280;54230;52.402;6.276;2023-03-12T13:15:01;100610.0;;;9.7;96.5
67345;BME280;54230;52.402;6.276;2023-03-12T13:20:12;100630.0;;;10.0;96.4
67345;BME280;54230;52.402;6.276;2023-03-12T13:25:22;100630.0;;;10.1;96.0
67345;BME280;54230;52.402;6.276;2023-03-12T13:35:06;100620.0;;;10.4;95.3
67345;BME280;54230;52.402;6.276;2023-03-12T13:40:00;100620.0;;;10.6;94.6
67345;BME280;54230;52.402;6.276;2023-03-12T13:50:03;100630.0;;;10.6;93.9
67345;BME280;54230;52.402;6.276;2023-03-12T13:55:04;100620.0;;;10.6;93.8
67345;BME280;54230;52.402;6.276;2023-03-12T14:00:03;100640.0;;;10.5;93.8
67345;BME280;54230;52.402;6.276;2023-03-12T14:05:02;100630.0;;;10.4;93.6
67345;BME280;54230;52.402;6.276;2023-03-12T14:10:10;100650.0;;;10.4;93.8
67345;BME280;54230;52.402;6.276;2023-03-12T14:15:09;100650.0;;;10.6;93.5
67345;BME280;54230;52.402;6.276;2023-03-12T14:20:02;100650.0;;;10.7;93.1
67345;BME280;54230;52.402;6.276;2023-03-12T14:25:04;100650.0;;;10.7;92.9
67345;BME280;54230;52.402;6.276;2023-03-12T14:30:09;100650.0;;;10.8;92.7
67345;BME280;54230;52.402;6.276;2023-03-12T14:35:10;100650.0;;;11.0;92.7
67345;BME280;54230;52.402;6.276;2023-03-12T14:40:01;100660.0;;;11.1;92.5
67345;BME280;54230;52.402;6.276;2023-03-12T14:45:02;100670.0;;;11.2;92.2
67345;BME280;54230;52.402;6.276;2023-03-12T14:50:00;100670.0;;;11.4;91.7
67345;BME280;54230;52.402;6.276;2023-03-12T14:55:03;100670.0;;;11.5;91.2
67345;BME280;54230;52.402;6.276;2023-03-12T15:00:00;100670.0;;;11.6;91.1
67345;BME280;54230;52.402;6.276;2023-03-12T15:05:00;100660.0;;;11.9;90.5
67345;BME280;54230;52.402;6.276;2023-03-12T15:10:01;100660.0;;;12.1;89.1
67345;BME280;54230;52.402;6.276;2023-03-12T15:15:03;100660.0;;;12.0;88.0
67345;BME280;54230;52.402;6.276;2023-03-12T15:20:02;100660.0;;;11.9;87.7
67345;BME280;54230;52.402;6.276;2023-03-12T15:25:01;100660.0;;;11.8;87.7
67345;BME280;54230;52.402;6.276;2023-03-12T15:30:00;100660.0;;;11.7;87.5
67345;BME280;54230;52.402;6.276;2023-03-12T15:35:11;100640.0;;;11.7;86.8
67345;BME280;54230;52.402;6.276;2023-03-12T15:40:02;100650.0;;;11.6;85.2
67345;BME280;54230;52.402;6.276;2023-03-12T15:45:01;100640.0;;;11.7;84.4
67345;BME280;54230;52.402;6.276;2023-03-12T15:50:03;100640.0;;;11.6;83.3
67345;BME280;54230;52.402;6.276;2023-03-12T15:55:04;100640.0;;;11.8;82.5
67345;BME280;54230;52.402;6.276;2023-03-12T16:00:19;100620.0;;;11.7;80.8
67345;BME280;54230;52.402;6.276;2023-03-12T16:05:00;100640.0;;;11.8;78.8
67345;BME280;54230;52.402;6.276;2023-03-12T16:10:00;100650.0;;;11.8;77.4
67345;BME280;54230;52.402;6.276;2023-03-12T16:15:00;100650.0;;;11.8;76.4
67345;BME280;54230;52.402;6.276;2023-03-12T16:20:01;100650.0;;;11.7;75.1
67345;BME280;54230;52.402;6.276;2023-03-12T16:25:00;100660.0;;;11.6;73.9
67345;BME280;54230;52.402;6.276;2023-03-12T16:30:00;100660.0;;;11.6;73.6
67345;BME280;54230;52.402;6.276;2023-03-12T16:35:00;100650.0;;;11.5;74.0
67345;BME280;54230;52.402;6.276;2023-03-12T16:40:00;100630.0;;;11.5;74.2
67345;BME280;54230;52.402;6.276;2023-03-12T16:45:00;100620.0;;;11.4;74.3
67345;BME280;54230;52.402;6.276;2023-03-12T16:50:00;100630.0;;;11.4;74.7
67345;BME280;54230;52.402;6.276;2023-03-12T16:55:00;100620.0;;;11.3;75.0
67345;BME280;54230;52.402;6.276;2023-03-12T17:00:01;100630.0;;;11.3;75.2
67345;BME280;54230;52.402;6.276;2023-03-12T17:05:00;100650.0;;;11.2;75.5
67345;BME280;54230;52.402;6.276;2023-03-12T17:10:00;100650.0;;;11.2;75.9
67345;BME280;54230;52.402;6.276;2023-03-12T17:15:02;100650.0;;;11.1;76.2
67345;BME280;54230;52.402;6.276;2023-03-12T17:20:00;100640.0;;;11.2;76.6
67345;BME280;54230;52.402;6.276;2023-03-12T17:25:00;100640.0;;;11.6;75.6
67345;BME280;54230;52.402;6.276;2023-03-12T17:30:00;100650.0;;;12.1;74.8
67345;BME280;54230;52.402;6.276;2023-03-12T17:35:00;100650.0;;;12.2;74.3
67345;BME280;54230;52.402;6.276;2023-03-12T17:40:00;100660.0;;;11.9;74.1
67345;BME280;54230;52.402;6.276;2023-03-12T17:45:00;100670.0;;;11.7;74.9
67345;BME280;54230;52.402;6.276;2023-03-12T17:50:00;100680.0;;;11.6;75.3
67345;BME280;54230;52.402;6.276;2023-03-12T17:55:00;100670.0;;;11.8;75.4
67345;BME280;54230;52.402;6.276;2023-03-12T18:00:00;100670.0;;;11.6;75.6
67345;BME280;54230;52.402;6.276;2023-03-12T18:05:00;100680.0;;;11.5;76.0
67345;BME280;54230;52.402;6.276;2023-03-12T18:10:00;100690.0;;;11.4;76.9
67345;BME280;54230;52.402;6.276;2023-03-12T18:15:00;100700.0;;;11.3;77.0
67345;BME280;54230;52.402;6.276;2023-03-12T18:20:00;100690.0;;;11.2;77.9
67345;BME280;54230;52.402;6.276;2023-03-12T18:25:00;100680.0;;;11.2;78.4
67345;BME280;54230;52.402;6.276;2023-03-12T18:30:00;100670.0;;;11.2;78.7
67345;BME280;54230;52.402;6.276;2023-03-12T18:35:00;100660.0;;;11.1;79.1
67345;BME280;54230;52.402;6.276;2023-03-12T18:40:00;100650.0;;;11.0;79.5
67345;BME280;54230;52.402;6.276;2023-03-12T18:45:00;100640.0;;;11.0;79.9
67345;BME280;54230;52.402;6.276;2023-03-12T18:50:00;100640.0;;;10.9;80.5
67345;BME280;54230;52.402;6.276;2023-03-12T18:55:00;100650.0;;;10.9;80.8
67345;BME280;54230;52.402;6.276;2023-03-12T19:00:00;100660.0;;;10.9;80.9
67345;BME280;54230;52.402;6.276;2023-03-12T19:05:01;100650.0;;;11.0;80.8
67345;BME280;54230;52.402;6.276;2023-03-12T19:10:00;100640.0;;;11.0;81.0
67345;BME280;54230;52.402;6.276;2023-03-12T19:15:00;100660.0;;;11.0;81.1
67345;BME280;54230;52.402;6.276;2023-03-12T19:20:00;100660.0;;;11.0;81.3
67345;BME280;54230;52.402;6.276;2023-03-12T19:25:00;100650.0;;;11.1;81.0
67345;BME280;54230;52.402;6.276;2023-03-12T19:30:00;100650.0;;;11.1;81.2
67345;BME280;54230;52.402;6.276;2023-03-12T19:35:00;100630.0;;;11.1;81.4
67345;BME280;54230;52.402;6.276;2023-03-12T19:40:00;100630.0;;;11.2;81.1
67345;BME280;54230;52.402;6.276;2023-03-12T19:45:00;100630.0;;;11.2;80.9
67345;BME280;54230;52.402;6.276;2023-03-12T19:50:00;100630.0;;;11.2;80.9
67345;BME280;54230;52.402;6.276;2023-03-12T19:55:00;100620.0;;;11.1;81.2
67345;BME280;54230;52.402;6.276;2023-03-12T20:00:00;100610.0;;;11.1;81.5
67345;BME280;54230;52.402;6.276;2023-03-12T20:05:00;100610.0;;;11.1;81.9
67345;BME280;54230;52.402;6.276;2023-03-12T20:10:00;100610.0;;;11.0;82.3
67345;BME280;54230;52.402;6.276;2023-03-12T20:15:00;100600.0;;;11.0;82.4
67345;BME280;54230;52.402;6.276;2023-03-12T20:20:00;100600.0;;;10.9;83.1
67345;BME280;54230;52.402;6.276;2023-03-12T20:25:00;100600.0;;;10.9;83.6
67345;BME280;54230;52.402;6.276;2023-03-12T20:30:00;100590.0;;;10.9;84.0
67345;BME280;54230;52.402;6.276;2023-03-12T20:35:00;100590.0;;;11.0;84.0
67345;BME280;54230;52.402;6.276;2023-03-12T20:40:00;100590.0;;;10.9;84.2
67345;BME280;54230;52.402;6.276;2023-03-12T20:45:00;100580.0;;;11.0;84.1
67345;BME280;54230;52.402;6.276;2023-03-12T20:50:00;100580.0;;;11.0;83.8
67345;BME280;54230;52.402;6.276;2023-03-12T20:55:00;100580.0;;;11.1;83.5
67345;BME280;54230;52.402;6.276;2023-03-12T21:00:00;100580.0;;;11.1;83.0
67345;BME280;54230;52.402;6.276;2023-03-12T21:05:00;100560.0;;;11.1;82.8
67345;BME280;54230;52.402;6.276;2023-03-12T21:10:00;100550.0;;;11.2;82.9
67345;BME280;54230;52.402;6.276;2023-03-12T21:15:00;100540.0;;;11.1;83.3
67345;BME280;54230;52.402;6.276;2023-03-12T21:20:00;100540.0;;;11.2;83.3
67345;BME280;54230;52.402;6.276;2023-03-12T21:25:00;100540.0;;;11.2;83.4
67345;BME280;54230;52.402;6.276;2023-03-12T21:30:00;100530.0;;;11.2;83.6
67345;BME280;54230;52.402;6.276;2023-03-12T21:35:00;100520.0;;;11.2;83.9
67345;BME280;54230;52.402;6.276;2023-03-12T21:40:00;100520.0;;;11.2;84.0
67345;BME280;54230;52.402;6.276;2023-03-12T21:45:00;100510.0;;;11.1;84.2
67345;BME280;54230;52.402;6.276;2023-03-12T21:50:00;100500.0;;;11.1;84.1
67345;BME280;54230;52.402;6.276;2023-03-12T21:55:00;100480.0;;;11.2;84.4
67345;BME280;54230;52.402;6.276;2023-03-12T22:00:00;100470.0;;;11.2;84.1
67345;BME280;54230;52.402;6.276;2023-03-12T22:05:00;100470.0;;;11.2;84.2
67345;BME280;54230;52.402;6.276;2023-03-12T22:10:00;100460.0;;;11.2;83.9
67345;BME280;54230;52.402;6.276;2023-03-12T22:15:00;100440.0;;;11.3;84.3
67345;BME280;54230;52.402;6.276;2023-03-12T22:20:00;100440.0;;;11.3;83.9
67345;BME280;54230;52.402;6.276;2023-03-12T22:25:00;100430.0;;;11.3;83.5
67345;BME280;54230;52.402;6.276;2023-03-12T22:30:00;100410.0;;;11.2;83.7
67345;BME280;54230;52.402;6.276;2023-03-12T22:35:00;100400.0;;;11.2;83.4
67345;BME280;54230;52.402;6.276;2023-03-12T22:40:00;100390.0;;;11.1;83.4
67345;BME280;54230;52.402;6.276;2023-03-12T22:45:00;100390.0;;;11.0;83.7
67345;BME280;54230;52.402;6.276;2023-03-12T22:50:00;100380.0;;;11.0;83.7
67345;BME280;54230;52.402;6.276;2023-03-12T22:55:00;100370.0;;;10.9;83.9
67345;BME280;54230;52.402;6.276;2023-03-12T23:00:00;100360.0;;;10.9;83.8
67345;BME280;54230;52.402;6.276;2023-03-12T23:05:00;100350.0;;;11.0;83.5
67345;BME280;54230;52.402;6.276;2023-03-12T23:10:00;100340.0;;;11.0;83.2
67345;BME280;54230;52.402;6.276;2023-03-12T23:15:00;100340.0;;;11.0;82.7
67345;BME280;54230;52.402;6.276;2023-03-12T23:20:00;100330.0;;;11.1;82.5
67345;BME280;54230;52.402;6.276;2023-03-12T23:25:00;100320.0;;;11.1;82.1
67345;BME280;54230;52.402;6.276;2023-03-12T23:30:00;100310.0;;;11.1;81.8
67345;BME280;54230;52.402;6.276;2023-03-12T23:35:00;100300.0;;;11.1;81.5
67345;BME280;54230;52.402;6.276;2023-03-12T23:40:00;100290.0;;;11.1;81.4
67345;BME280;54230;52.402;6.276;2023-03-12T23:45:00;100280.0;;;11.1;81.1
67345;BME280;54230;52.402;6.276;2023-03-12T23:50:00;100260.0;;;11.1;81.5
67345;BME280;54230;52.402;6.276;2023-03-12T23:55:00;100250.0;;;11.1;82.1
